Weather at Larissa Air Base

Public forecast

Using degrees Celsius for public forecast. Weather courtesy of forecast.io.

Current aviation weather report (METAR) for Larissa Air Base

2024/05/23 23:50 (retrieved 23 minutes ago)

LGLR 232350Z 00000KT 9999 FEW035 17/10 Q1014 BLU

Closest aviation forecast (TAF) to Larissa Air Base

Forecast is more than 6 hours old.

Closest forecast is Kukës International Airport, 170.8 nm (316.3 km) NNW.

2024/05/23 18:00 Ammendment (retrieved 6 hours ago)

TAF AMD LAKU 231900Z 2318/2418 CNL